createdAt,value
2022-12-15T00:00:16.288Z,84.57
2022-12-15T00:03:30.846Z,84.30
2022-12-15T00:06:25.193Z,84.30
2022-12-15T00:09:20.599Z,84.20
2022-12-15T00:12:14.256Z,84.03
2022-12-15T00:15:07.915Z,84.04
2022-12-15T00:18:01.374Z,84.08
2022-12-15T00:20:55.039Z,84.07
2022-12-15T00:23:48.698Z,84.09
2022-12-15T00:26:42.261Z,84.18
2022-12-15T00:29:35.970Z,84.27
2022-12-15T00:32:29.770Z,84.38
2022-12-15T00:35:24.195Z,84.33
2022-12-15T00:38:17.813Z,84.48
2022-12-15T00:40:59.210Z,84.53
2022-12-15T00:43:37.803Z,84.60
2022-12-15T00:46:32.031Z,84.70
2022-12-15T00:49:27.950Z,84.79
2022-12-15T00:52:21.541Z,84.85
2022-12-15T00:55:15.833Z,84.88
2022-12-15T00:58:09.803Z,84.87
2022-12-15T01:01:03.424Z,84.87
2022-12-15T01:03:57.370Z,84.82
2022-12-15T01:06:50.782Z,84.76
2022-12-15T01:09:44.987Z,84.66
2022-12-15T01:12:38.550Z,84.64
2022-12-15T01:15:33.201Z,84.71
2022-12-15T01:18:27.036Z,84.67
2022-12-15T01:21:06.090Z,84.53
2022-12-15T01:23:43.426Z,84.45
2022-12-15T01:26:19.535Z,84.38
2022-12-15T01:28:55.287Z,84.23
2022-12-15T01:31:31.191Z,84.35
2022-12-15T01:34:07.587Z,84.47
2022-12-15T01:36:43.663Z,84.40
2022-12-15T01:39:19.612Z,84.51
2022-12-15T01:41:55.584Z,84.67
2022-12-15T01:44:31.553Z,84.79
2022-12-15T01:47:09.964Z,84.91
2022-12-15T01:49:47.734Z,85.03
2022-12-15T01:52:25.346Z,85.05
2022-12-15T01:55:02.729Z,85.20
2022-12-15T01:57:39.520Z,85.40
2022-12-15T02:00:18.518Z,85.50
2022-12-15T02:02:54.897Z,85.52
2022-12-15T02:05:33.942Z,85.58
2022-12-15T02:08:11.800Z,85.62
2022-12-15T02:11:39.089Z,85.69
2022-12-15T02:14:21.843Z,85.54
2022-12-15T02:17:15.531Z,85.68
2022-12-15T02:20:44.461Z,85.63
2022-12-15T02:24:24.162Z,85.60
2022-12-15T02:27:56.781Z,85.56
2022-12-15T02:31:19.918Z,85.48
2022-12-15T02:34:08.410Z,85.40
2022-12-15T02:36:50.573Z,85.37
2022-12-15T02:39:28.210Z,85.37
2022-12-15T02:42:04.021Z,85.52
2022-12-15T02:44:46.551Z,85.57
2022-12-15T02:47:38.459Z,85.72
2022-12-15T02:50:50.061Z,85.83
2022-12-15T02:54:01.031Z,86.04
2022-12-15T02:56:47.990Z,86.20
2022-12-15T02:59:39.138Z,86.21
2022-12-15T03:02:16.979Z,86.21
2022-12-15T03:04:53.580Z,86.33
2022-12-15T03:07:31.410Z,86.42
2022-12-15T03:10:11.592Z,86.49
2022-12-15T03:12:47.476Z,86.51
2022-12-15T03:15:24.130Z,86.59
2022-12-15T03:17:59.928Z,86.51
2022-12-15T03:20:36.408Z,86.52
2022-12-15T03:23:12.234Z,86.41
2022-12-15T03:25:50.454Z,86.27
2022-12-15T03:28:26.519Z,86.21
2022-12-15T03:31:03.193Z,86.25
2022-12-15T03:33:39.972Z,86.20
2022-12-15T03:36:16.228Z,86.08
2022-12-15T03:38:52.093Z,86.10
2022-12-15T03:41:27.976Z,86.14
2022-12-15T03:44:04.347Z,86.11
2022-12-15T03:46:40.278Z,86.18
2022-12-15T03:49:16.201Z,86.23
2022-12-15T03:51:52.311Z,86.28
2022-12-15T03:54:28.271Z,86.37
2022-12-15T03:57:04.100Z,86.45
2022-12-15T03:59:39.900Z,86.59
2022-12-15T04:02:16.447Z,86.72
2022-12-15T04:04:52.594Z,86.80
2022-12-15T04:07:28.393Z,86.82
2022-12-15T04:10:04.557Z,86.73
2022-12-15T04:12:40.704Z,86.71
2022-12-15T04:15:17.260Z,86.75
2022-12-15T04:17:53.189Z,86.71
2022-12-15T04:20:29.145Z,86.77
2022-12-15T04:23:07.765Z,86.72
2022-12-15T04:26:01.426Z,86.67
2022-12-15T04:28:55.144Z,86.61
2022-12-15T04:31:53.148Z,86.53
2022-12-15T04:34:47.135Z,86.56
2022-12-15T04:37:40.737Z,86.50
2022-12-15T04:40:34.741Z,86.52
2022-12-15T04:43:28.829Z,86.59
2022-12-15T04:46:22.623Z,86.64
2022-12-15T04:49:16.342Z,86.55
2022-12-15T04:52:09.389Z,86.60
2022-12-15T04:55:02.834Z,86.71
2022-12-15T04:57:57.319Z,86.70
2022-12-15T05:00:50.774Z,86.72
2022-12-15T05:03:44.208Z,86.83
2022-12-15T05:06:37.895Z,86.93
2022-12-15T05:09:31.491Z,87.01
2022-12-15T05:12:25.621Z,87.04
2022-12-15T05:15:19.181Z,87.13
2022-12-15T05:18:13.050Z,87.20
2022-12-15T05:21:06.491Z,87.23
2022-12-15T05:24:00.453Z,87.28
2022-12-15T05:26:54.151Z,87.24
2022-12-15T05:29:47.675Z,87.16
2022-12-15T05:32:23.719Z,87.23
2022-12-15T05:34:59.861Z,87.18
2022-12-15T05:37:35.592Z,87.11
2022-12-15T05:40:14.624Z,87.21
2022-12-15T05:42:50.564Z,87.28
2022-12-15T05:45:26.600Z,87.33
2022-12-15T05:48:02.655Z,87.36
2022-12-15T05:50:38.882Z,87.39
2022-12-15T05:53:15.596Z,87.39
2022-12-15T05:55:51.692Z,87.41
2022-12-15T05:58:27.610Z,87.49
2022-12-15T06:01:12.921Z,87.56
2022-12-15T06:03:49.178Z,87.70
2022-12-15T06:06:25.711Z,87.75
2022-12-15T06:09:03.657Z,87.81
2022-12-15T06:11:39.992Z,87.80
2022-12-15T06:14:16.208Z,87.76
2022-12-15T06:17:00.496Z,87.81
2022-12-15T06:19:39.216Z,87.83
2022-12-15T06:22:15.144Z,87.93
2022-12-15T06:24:51.224Z,87.94
2022-12-15T06:27:27.184Z,87.97
2022-12-15T06:30:03.047Z,87.90
2022-12-15T06:32:41.339Z,87.95
2022-12-15T06:35:17.591Z,88.01
2022-12-15T06:37:53.606Z,88.06
2022-12-15T06:40:32.127Z,88.07
2022-12-15T06:43:10.698Z,88.14
2022-12-15T06:45:52.520Z,88.10
2022-12-15T06:48:27.399Z,88.08
2022-12-15T06:51:14.949Z,88.03
2022-12-15T06:53:54.395Z,87.97
2022-12-15T06:56:36.076Z,87.88
2022-12-15T06:59:13.641Z,87.80
2022-12-15T07:01:49.626Z,87.77
2022-12-15T07:04:25.880Z,87.69
2022-12-15T07:07:02.043Z,87.59
2022-12-15T07:09:37.870Z,87.50
2022-12-15T07:12:16.579Z,87.49
2022-12-15T07:14:53.726Z,87.46
2022-12-15T07:17:30.044Z,87.40
2022-12-15T07:20:07.450Z,87.34
2022-12-15T07:22:43.372Z,87.28
2022-12-15T07:25:19.913Z,87.20
2022-12-15T07:27:56.323Z,87.14
2022-12-15T07:30:38.439Z,87.08
2022-12-15T07:33:15.852Z,86.86
2022-12-15T07:35:59.536Z,86.77
2022-12-15T07:38:36.778Z,86.64
2022-12-15T07:41:14.215Z,86.59
2022-12-15T07:43:50.302Z,86.46
2022-12-15T07:46:27.477Z,86.28
2022-12-15T07:49:03.431Z,86.06
2022-12-15T07:51:39.449Z,86.06
2022-12-15T07:54:16.768Z,85.88
2022-12-15T07:56:53.190Z,85.81
2022-12-15T07:59:29.275Z,85.64
2022-12-15T08:02:06.350Z,85.40
2022-12-15T08:04:42.746Z,85.21
2022-12-15T08:07:18.826Z,85.07
2022-12-15T08:09:55.007Z,84.85
2022-12-15T08:12:31.513Z,84.62
2022-12-15T08:15:09.308Z,84.52
2022-12-15T08:17:47.048Z,84.41
2022-12-15T08:20:23.284Z,84.40
2022-12-15T08:22:59.191Z,84.23
2022-12-15T08:25:35.134Z,84.08
2022-12-15T08:28:11.494Z,83.98
2022-12-15T08:30:47.349Z,83.90
2022-12-15T08:33:23.385Z,83.81
2022-12-15T08:36:04.695Z,83.74
2022-12-15T08:38:42.546Z,83.86
2022-12-15T08:41:26.552Z,83.69
2022-12-15T08:44:04.594Z,83.44
2022-12-15T08:46:40.832Z,83.44
2022-12-15T08:49:21.644Z,83.49
2022-12-15T08:51:58.481Z,83.33
2022-12-15T08:54:34.809Z,83.02
2022-12-15T08:57:10.968Z,82.78
2022-12-15T08:59:46.923Z,82.71
2022-12-15T09:02:23.621Z,82.64
2022-12-15T09:04:59.760Z,82.29
2022-12-15T09:07:35.715Z,81.98
2022-12-15T09:10:13.065Z,81.60
2022-12-15T09:12:49.057Z,81.48
2022-12-15T09:15:45.362Z,81.28
2022-12-15T09:18:21.238Z,81.10
2022-12-15T09:21:01.816Z,80.89
2022-12-15T09:23:38.695Z,80.59
2022-12-15T09:26:17.161Z,80.51
2022-12-15T09:28:54.804Z,80.45
2022-12-15T09:31:38.101Z,80.38
2022-12-15T09:34:18.354Z,80.21
2022-12-15T09:36:54.222Z,80.22
2022-12-15T09:39:30.376Z,80.30
2022-12-15T09:42:06.514Z,80.27
2022-12-15T09:44:43.454Z,80.27
2022-12-15T09:47:35.893Z,80.44
2022-12-15T09:50:20.608Z,80.48
2022-12-15T09:52:59.991Z,80.32
2022-12-15T09:55:37.314Z,80.40
2022-12-15T09:58:35.250Z,80.52
2022-12-15T10:01:38.527Z,80.59
2022-12-15T10:04:27.360Z,80.70
2022-12-15T10:07:15.861Z,80.56
2022-12-15T10:09:51.817Z,80.34
2022-12-15T10:12:34.977Z,80.31
2022-12-15T10:15:24.611Z,79.98
2022-12-15T10:18:11.480Z,79.37
2022-12-15T10:20:48.494Z,78.97
2022-12-15T10:23:26.386Z,78.54
2022-12-15T10:26:23.798Z,78.56
2022-12-15T10:29:27.744Z,78.43
2022-12-15T10:32:12.966Z,78.35
2022-12-15T10:34:49.126Z,78.02
2022-12-15T10:37:26.344Z,77.78
2022-12-15T10:40:02.261Z,77.80
2022-12-15T10:42:52.961Z,77.81
2022-12-15T10:45:41.634Z,77.85
2022-12-15T10:48:25.524Z,77.59
2022-12-15T10:51:26.535Z,77.48
2022-12-15T10:54:15.676Z,78.03
2022-12-15T10:56:57.935Z,77.65
2022-12-15T10:59:37.397Z,77.87
2022-12-15T11:02:37.697Z,77.86
2022-12-15T11:05:21.899Z,77.97
2022-12-15T11:08:17.155Z,78.14
2022-12-15T11:11:16.958Z,78.21
2022-12-15T11:14:16.638Z,78.31
2022-12-15T11:17:00.368Z,78.38
2022-12-15T11:19:49.957Z,78.40
2022-12-15T11:22:39.331Z,78.57
2022-12-15T11:25:32.653Z,78.62
2022-12-15T11:28:18.172Z,78.52
2022-12-15T11:31:07.224Z,78.68
2022-12-15T11:33:43.057Z,78.64
2022-12-15T11:36:46.856Z,78.53
2022-12-15T11:39:44.814Z,78.56
2022-12-15T11:42:35.400Z,78.20
2022-12-15T11:45:23.945Z,77.99
2022-12-15T11:48:14.702Z,78.16
2022-12-15T11:51:01.409Z,78.12
2022-12-15T11:54:05.403Z,77.65
2022-12-15T11:56:51.818Z,77.70
2022-12-15T11:59:56.180Z,77.48
2022-12-15T12:02:58.651Z,77.63
2022-12-15T12:05:59.023Z,77.73
2022-12-15T12:09:18.676Z,77.89
2022-12-15T12:12:13.310Z,77.96
2022-12-15T12:15:16.563Z,77.83
2022-12-15T12:17:57.918Z,77.86
2022-12-15T12:20:50.831Z,77.57
2022-12-15T12:23:38.163Z,77.65
2022-12-15T12:26:24.006Z,77.56
2022-12-15T12:29:09.623Z,77.63
2022-12-15T12:32:05.319Z,77.49
2022-12-15T12:35:31.601Z,77.41
2022-12-15T12:38:05.614Z,77.41
2022-12-15T12:41:02.908Z,77.39
2022-12-15T12:43:43.699Z,77.53
2022-12-15T12:46:26.750Z,77.73
2022-12-15T12:49:14.697Z,77.88
2022-12-15T12:51:59.675Z,77.92
2022-12-15T12:54:59.436Z,77.85
2022-12-15T12:57:44.973Z,77.80
2022-12-15T13:00:27.315Z,77.86
2022-12-15T13:03:24.300Z,77.99
2022-12-15T13:06:00.200Z,78.03
2022-12-15T13:08:55.996Z,77.85
2022-12-15T13:12:20.554Z,77.78
2022-12-15T13:15:04.817Z,77.78
2022-12-15T13:17:51.938Z,77.89
2022-12-15T13:20:34.528Z,77.89
2022-12-15T13:23:47.279Z,77.86
2022-12-15T13:26:31.826Z,77.67
2022-12-15T13:29:15.878Z,77.71
2022-12-15T13:31:54.788Z,77.94
2022-12-15T13:34:39.697Z,78.08
2022-12-15T13:37:54.348Z,77.91
2022-12-15T13:40:56.846Z,77.63
2022-12-15T13:43:49.623Z,77.75
2022-12-15T13:46:34.565Z,77.64
2022-12-15T13:49:22.076Z,77.65
2022-12-15T13:52:12.074Z,77.55
2022-12-15T13:55:01.835Z,77.90
2022-12-15T13:57:55.569Z,78.31
2022-12-15T14:00:32.975Z,78.28
2022-12-15T14:03:15.642Z,78.07
2022-12-15T14:05:58.946Z,78.07
2022-12-15T14:08:55.745Z,78.20
2022-12-15T14:11:52.397Z,78.32
2022-12-15T14:14:35.938Z,78.39
2022-12-15T14:17:17.518Z,78.52
2022-12-15T14:19:54.640Z,78.48
2022-12-15T14:22:32.579Z,78.40
2022-12-15T14:25:22.409Z,78.48
2022-12-15T14:28:01.087Z,78.64
2022-12-15T14:30:38.247Z,78.78
2022-12-15T14:33:22.095Z,78.84
2022-12-15T14:36:06.153Z,79.14
2022-12-15T14:38:55.185Z,79.43
2022-12-15T14:41:39.168Z,79.82
2022-12-15T14:44:38.074Z,80.00
2022-12-15T14:47:27.988Z,80.19
2022-12-15T14:50:11.025Z,80.40
2022-12-15T14:52:48.598Z,80.47
2022-12-15T14:55:39.404Z,80.67
2022-12-15T14:58:37.146Z,80.81
2022-12-15T15:01:31.219Z,80.89
2022-12-15T15:04:23.793Z,81.00
2022-12-15T15:07:04.615Z,81.10
2022-12-15T15:09:47.055Z,81.11
2022-12-15T15:12:28.912Z,81.17
2022-12-15T15:15:07.920Z,81.27
2022-12-15T15:17:53.617Z,81.20
2022-12-15T15:20:34.796Z,81.19
2022-12-15T15:23:21.487Z,81.15
2022-12-15T15:25:59.444Z,81.14
2022-12-15T15:28:41.922Z,81.20
2022-12-15T15:31:42.213Z,81.11
2022-12-15T15:34:18.570Z,81.18
2022-12-15T15:36:55.010Z,81.23
2022-12-15T15:39:31.487Z,81.20
2022-12-15T15:42:16.382Z,81.17
2022-12-15T15:44:52.297Z,81.17
2022-12-15T15:47:30.401Z,81.17
2022-12-15T15:50:07.300Z,81.04
2022-12-15T15:52:44.847Z,81.06
2022-12-15T15:55:29.494Z,81.24
2022-12-15T15:58:14.526Z,81.49
2022-12-15T16:00:50.575Z,81.59
2022-12-15T16:03:26.934Z,81.67
2022-12-15T16:06:04.418Z,81.70
2022-12-15T16:08:41.918Z,81.67
2022-12-15T16:11:18.094Z,81.67
2022-12-15T16:13:54.050Z,81.72
2022-12-15T16:16:34.992Z,81.82
2022-12-15T16:19:12.175Z,81.87
2022-12-15T16:21:51.047Z,81.96
2022-12-15T16:24:27.190Z,81.94
2022-12-15T16:27:03.919Z,82.01
2022-12-15T16:29:39.918Z,82.33
2022-12-15T16:32:16.847Z,82.49
2022-12-15T16:34:53.031Z,82.48
2022-12-15T16:37:37.737Z,82.43
2022-12-15T16:40:28.351Z,82.48
2022-12-15T16:43:18.587Z,82.50
2022-12-15T16:45:57.134Z,82.50
2022-12-15T16:48:33.402Z,82.50
2022-12-15T16:51:19.668Z,82.48
2022-12-15T16:53:55.722Z,82.47
2022-12-15T16:56:31.777Z,82.50
2022-12-15T16:59:31.974Z,82.60
2022-12-15T17:02:17.528Z,82.61
2022-12-15T17:04:55.343Z,82.62
2022-12-15T17:07:32.263Z,82.60
2022-12-15T17:10:16.560Z,82.64
2022-12-15T17:12:55.036Z,82.79
2022-12-15T17:15:31.798Z,82.46
2022-12-15T17:18:08.955Z,82.29
2022-12-15T17:20:45.644Z,82.20
2022-12-15T17:23:24.134Z,82.16
2022-12-15T17:26:30.186Z,82.19
2022-12-15T17:28:57.453Z,82.20
2022-12-15T17:31:35.924Z,82.20
2022-12-15T17:34:30.283Z,82.06
2022-12-15T17:37:12.599Z,82.07
2022-12-15T17:39:51.534Z,82.11
2022-12-15T17:42:27.618Z,82.16
2022-12-15T17:45:03.737Z,82.19
2022-12-15T17:47:39.872Z,82.15
2022-12-15T17:50:18.009Z,82.16
2022-12-15T17:52:54.038Z,82.19
2022-12-15T17:55:35.242Z,82.17
2022-12-15T17:58:22.263Z,82.19
2022-12-15T18:00:59.885Z,82.25
2022-12-15T18:03:36.293Z,82.27
2022-12-15T18:06:18.884Z,82.30
2022-12-15T18:08:53.392Z,82.30
2022-12-15T18:11:30.884Z,82.31
2022-12-15T18:14:07.149Z,82.30
2022-12-15T18:16:43.064Z,82.27
2022-12-15T18:19:19.162Z,82.23
2022-12-15T18:21:55.834Z,82.30
2022-12-15T18:24:31.855Z,82.30
2022-12-15T18:27:23.804Z,82.32
2022-12-15T18:30:00.495Z,82.40
2022-12-15T18:32:42.156Z,82.42
2022-12-15T18:35:40.341Z,82.46
2022-12-15T18:38:23.741Z,82.45
2022-12-15T18:41:04.319Z,82.48
2022-12-15T18:43:41.819Z,82.50
2022-12-15T18:46:20.392Z,82.51
2022-12-15T18:48:56.803Z,82.55
2022-12-15T18:51:32.908Z,82.57
2022-12-15T18:54:15.359Z,82.53
2022-12-15T18:56:51.873Z,82.56
2022-12-15T18:59:28.199Z,82.59
2022-12-15T19:02:04.341Z,82.61
2022-12-15T19:04:40.518Z,82.67
2022-12-15T19:07:16.582Z,82.70
2022-12-15T19:09:54.673Z,82.70
2022-12-15T19:12:30.651Z,82.78
2022-12-15T19:15:14.048Z,82.85
2022-12-15T19:18:08.902Z,82.95
2022-12-15T19:21:03.237Z,83.01
2022-12-15T19:23:39.221Z,83.10
2022-12-15T19:26:16.190Z,83.13
2022-12-15T19:28:52.349Z,83.19
2022-12-15T19:31:28.574Z,83.22
2022-12-15T19:34:04.759Z,83.29
2022-12-15T19:36:41.564Z,83.46
2022-12-15T19:39:26.296Z,83.50
2022-12-15T19:42:07.537Z,83.51
2022-12-15T19:44:46.682Z,83.50
2022-12-15T19:47:22.620Z,83.45
2022-12-15T19:49:58.803Z,83.39
2022-12-15T19:52:35.618Z,83.30
2022-12-15T19:55:19.559Z,83.29
2022-12-15T19:57:55.693Z,83.27
2022-12-15T20:00:32.164Z,83.23
2022-12-15T20:03:08.336Z,83.14
2022-12-15T20:05:44.739Z,82.94
2022-12-15T20:08:26.615Z,82.88
2022-12-15T20:11:03.735Z,82.69
2022-12-15T20:13:40.350Z,82.61
2022-12-15T20:16:19.299Z,82.55
2022-12-15T20:18:58.283Z,82.43
2022-12-15T20:21:39.778Z,82.26
2022-12-15T20:24:21.392Z,82.19
2022-12-15T20:26:59.761Z,82.21
2022-12-15T20:29:37.356Z,82.24
2022-12-15T20:32:21.854Z,82.17
2022-12-15T20:34:59.301Z,82.14
2022-12-15T20:37:35.975Z,82.08
2022-12-15T20:40:28.102Z,82.05
2022-12-15T20:43:07.195Z,82.16
2022-12-15T20:45:43.379Z,82.15
2022-12-15T20:48:20.499Z,82.11
2022-12-15T20:50:57.049Z,82.16
2022-12-15T20:53:33.726Z,82.09
2022-12-15T20:56:14.404Z,82.01
2022-12-15T20:58:51.359Z,81.94
2022-12-15T21:01:32.310Z,81.94
2022-12-15T21:04:27.806Z,81.93
2022-12-15T21:07:04.204Z,81.91
2022-12-15T21:09:40.159Z,81.76
2022-12-15T21:12:24.785Z,81.84
2022-12-15T21:15:01.956Z,81.70
2022-12-15T21:17:41.821Z,81.77
2022-12-15T21:20:19.160Z,81.68
2022-12-15T21:22:55.397Z,81.56
2022-12-15T21:25:32.318Z,81.62
2022-12-15T21:28:14.007Z,81.60
2022-12-15T21:30:51.381Z,81.51
2022-12-15T21:33:27.717Z,81.50
2022-12-15T21:36:04.189Z,81.56
2022-12-15T21:38:46.694Z,81.47
2022-12-15T21:41:25.514Z,81.51
2022-12-15T21:44:02.676Z,81.48
2022-12-15T21:46:39.203Z,81.55
2022-12-15T21:49:20.669Z,81.59
2022-12-15T21:52:01.267Z,81.48
2022-12-15T21:54:39.372Z,81.49
2022-12-15T21:57:17.065Z,81.47
2022-12-15T21:59:53.275Z,81.51
2022-12-15T22:02:30.711Z,81.60
2022-12-15T22:05:16.038Z,81.61
2022-12-15T22:07:52.836Z,81.60
2022-12-15T22:10:30.609Z,81.58
2022-12-15T22:13:07.398Z,81.65
2022-12-15T22:15:45.118Z,81.79
2022-12-15T22:18:22.547Z,81.79
2022-12-15T22:20:58.632Z,81.76
2022-12-15T22:23:34.897Z,81.90
2022-12-15T22:26:21.346Z,81.99
2022-12-15T22:29:01.109Z,82.03
2022-12-15T22:31:37.435Z,82.13
2022-12-15T22:34:23.799Z,82.20
2022-12-15T22:36:59.862Z,82.31
2022-12-15T22:39:35.712Z,82.38
2022-12-15T22:42:16.142Z,82.45
2022-12-15T22:44:59.040Z,82.45
2022-12-15T22:47:38.726Z,82.43
2022-12-15T22:50:23.409Z,82.50
2022-12-15T22:52:59.731Z,82.50
2022-12-15T22:55:35.551Z,82.51
2022-12-15T22:58:17.309Z,82.52
2022-12-15T23:00:55.850Z,82.60
2022-12-15T23:03:34.122Z,82.61
2022-12-15T23:06:11.154Z,82.65
2022-12-15T23:08:51.147Z,82.69
2022-12-15T23:11:42.038Z,82.73
2022-12-15T23:14:40.513Z,82.82
2022-12-15T23:17:17.065Z,82.89
2022-12-15T23:19:53.247Z,82.91
2022-12-15T23:22:29.055Z,82.98
2022-12-15T23:25:07.703Z,83.07
2022-12-15T23:27:44.778Z,83.17
2022-12-15T23:30:21.474Z,83.27
2022-12-15T23:32:57.326Z,83.44
2022-12-15T23:35:33.706Z,83.54
2022-12-15T23:38:09.785Z,83.60
2022-12-15T23:40:53.179Z,83.66
2022-12-15T23:43:32.629Z,83.69
2022-12-15T23:46:12.701Z,83.76
2022-12-15T23:48:48.876Z,83.83
2022-12-15T23:51:25.116Z,83.86
2022-12-15T23:54:00.930Z,83.90
2022-12-15T23:56:39.838Z,83.96
2022-12-15T23:59:15.974Z,83.99
